GCLP/LPA METAR and TAF weather

Enter ICAO airport designator
Station Type Date Time Source
GCLP METAR 2018/09/21 23:00 UTC NOAA

GCLP 212300Z 01017KT 9999 FEW020 23/19 Q1018 NOSIG


Station Type Date Time Source
GCLP Decoded METAR 2018/09/21 23:00 UTC NOAA

Gran Canaria - Canary Islands, Spain (GCLP) 27-56N 015-23W 47M
Sep 21, 2018 - 07:00 PM EDT / 2018.09.21 2300 UTC
Wind: from the N (010 degrees) at 20 MPH (17 KT):0
Visibility: greater than 7 mile(s):0
Sky conditions: mostly clear
Temperature: 73 F (23 C)
Dew Point: 66 F (19 C)
Relative Humidity: 78%
Pressure (altimeter): 30.06 in. Hg (1018 hPa)
ob: GCLP 212300Z 01017KT 9999 FEW020 23/19 Q1018 NOSIG
cycle: 23

Station Type Date Time Source
GCLP TAF 2018/09/21 21:34 UTC NOAA

TAF GCLP 212000Z 2121/2221 01017KT 9999 FEW030 TX28/2214Z TN22/2205Z


Example: see airport list